sensor_id;sensor_type;location;lat;lon;timestamp;P1;durP1;ratioP1;P2;durP2;ratioP2
39088;SDS011;24837;48.024;8.534;2022-07-06T00:01:50;2.08;;;1.88;;
39088;SDS011;24837;48.024;8.534;2022-07-06T00:04:16;3.53;;;1.70;;
39088;SDS011;24837;48.024;8.534;2022-07-06T00:06:42;1.95;;;1.80;;
39088;SDS011;24837;48.024;8.534;2022-07-06T00:09:08;3.28;;;1.92;;
39088;SDS011;24837;48.024;8.534;2022-07-06T00:11:33;2.97;;;1.90;;
39088;SDS011;24837;48.024;8.534;2022-07-06T00:13:59;3.03;;;2.47;;
39088;SDS011;24837;48.024;8.534;2022-07-06T00:16:25;3.67;;;2.35;;
39088;SDS011;24837;48.024;8.534;2022-07-06T00:18:51;2.28;;;2.08;;
39088;SDS011;24837;48.024;8.534;2022-07-06T00:21:17;5.40;;;2.72;;
39088;SDS011;24837;48.024;8.534;2022-07-06T00:23:42;1.85;;;1.63;;
39088;SDS011;24837;48.024;8.534;2022-07-06T00:26:08;3.45;;;2.00;;
39088;SDS011;24837;48.024;8.534;2022-07-06T00:28:34;2.92;;;1.90;;
39088;SDS011;24837;48.024;8.534;2022-07-06T00:31:00;2.33;;;2.13;;
39088;SDS011;24837;48.024;8.534;2022-07-06T00:33:25;1.85;;;1.75;;
39088;SDS011;24837;48.024;8.534;2022-07-06T00:35:51;2.40;;;1.70;;
39088;SDS011;24837;48.024;8.534;2022-07-06T00:38:17;6.43;;;2.40;;
39088;SDS011;24837;48.024;8.534;2022-07-06T00:40:43;3.65;;;1.80;;
39088;SDS011;24837;48.024;8.534;2022-07-06T00:43:09;1.77;;;1.65;;
39088;SDS011;24837;48.024;8.534;2022-07-06T00:45:34;2.97;;;1.90;;
39088;SDS011;24837;48.024;8.534;2022-07-06T00:48:00;2.88;;;1.73;;
39088;SDS011;24837;48.024;8.534;2022-07-06T00:50:26;2.20;;;2.00;;
39088;SDS011;24837;48.024;8.534;2022-07-06T00:52:56;2.45;;;1.80;;
39088;SDS011;24837;48.024;8.534;2022-07-06T00:55:27;2.63;;;1.92;;
39088;SDS011;24837;48.024;8.534;2022-07-06T00:57:54;1.80;;;1.70;;
39088;SDS011;24837;48.024;8.534;2022-07-06T01:00:23;2.25;;;1.83;;
39088;SDS011;24837;48.024;8.534;2022-07-06T01:02:50;2.35;;;1.70;;
39088;SDS011;24837;48.024;8.534;2022-07-06T01:05:17;2.28;;;1.90;;
39088;SDS011;24837;48.024;8.534;2022-07-06T01:07:43;3.00;;;1.80;;
39088;SDS011;24837;48.024;8.534;2022-07-06T01:10:10;1.65;;;1.55;;
39088;SDS011;24837;48.024;8.534;2022-07-06T01:12:41;2.95;;;1.90;;
39088;SDS011;24837;48.024;8.534;2022-07-06T01:15:08;2.33;;;1.75;;
39088;SDS011;24837;48.024;8.534;2022-07-06T01:17:35;3.70;;;1.85;;
39088;SDS011;24837;48.024;8.534;2022-07-06T01:20:10;2.47;;;1.80;;
39088;SDS011;24837;48.024;8.534;2022-07-06T01:22:43;1.80;;;1.70;;
39088;SDS011;24837;48.024;8.534;2022-07-06T01:25:09;6.28;;;1.90;;
39088;SDS011;24837;48.024;8.534;2022-07-06T01:27:36;2.10;;;1.90;;
39088;SDS011;24837;48.024;8.534;2022-07-06T01:30:07;3.60;;;1.85;;
39088;SDS011;24837;48.024;8.534;2022-07-06T01:32:35;3.22;;;1.92;;
39088;SDS011;24837;48.024;8.534;2022-07-06T01:35:01;4.82;;;1.98;;
39088;SDS011;24837;48.024;8.534;2022-07-06T01:37:27;4.45;;;2.13;;
39088;SDS011;24837;48.024;8.534;2022-07-06T01:39:53;3.38;;;1.80;;
39088;SDS011;24837;48.024;8.534;2022-07-06T01:42:22;6.05;;;2.83;;
39088;SDS011;24837;48.024;8.534;2022-07-06T01:44:47;2.75;;;2.28;;
39088;SDS011;24837;48.024;8.534;2022-07-06T01:47:13;2.95;;;1.98;;
39088;SDS011;24837;48.024;8.534;2022-07-06T01:49:38;3.33;;;1.80;;
39088;SDS011;24837;48.024;8.534;2022-07-06T01:52:04;4.05;;;1.77;;
39088;SDS011;24837;48.024;8.534;2022-07-06T01:54:30;2.13;;;1.60;;
39088;SDS011;24837;48.024;8.534;2022-07-06T01:56:55;2.75;;;2.05;;
39088;SDS011;24837;48.024;8.534;2022-07-06T01:59:21;2.75;;;1.60;;
39088;SDS011;24837;48.024;8.534;2022-07-06T02:01:46;2.17;;;1.80;;
39088;SDS011;24837;48.024;8.534;2022-07-06T02:04:12;2.45;;;1.77;;
39088;SDS011;24837;48.024;8.534;2022-07-06T02:06:37;3.75;;;1.95;;
39088;SDS011;24837;48.024;8.534;2022-07-06T02:09:03;3.22;;;2.10;;
39088;SDS011;24837;48.024;8.534;2022-07-06T02:11:29;3.08;;;2.05;;
39088;SDS011;24837;48.024;8.534;2022-07-06T02:13:54;2.78;;;1.83;;
39088;SDS011;24837;48.024;8.534;2022-07-06T02:16:20;2.75;;;2.10;;
39088;SDS011;24837;48.024;8.534;2022-07-06T02:18:46;3.00;;;2.00;;
39088;SDS011;24837;48.024;8.534;2022-07-06T02:21:11;2.38;;;2.05;;
39088;SDS011;24837;48.024;8.534;2022-07-06T02:23:37;2.10;;;1.90;;
39088;SDS011;24837;48.024;8.534;2022-07-06T02:26:02;2.45;;;1.95;;
39088;SDS011;24837;48.024;8.534;2022-07-06T02:28:28;2.80;;;1.85;;
39088;SDS011;24837;48.024;8.534;2022-07-06T02:30:54;2.00;;;1.83;;
39088;SDS011;24837;48.024;8.534;2022-07-06T02:33:19;2.35;;;2.00;;
39088;SDS011;24837;48.024;8.534;2022-07-06T02:35:45;2.28;;;1.83;;
39088;SDS011;24837;48.024;8.534;2022-07-06T02:38:11;1.85;;;1.75;;
39088;SDS011;24837;48.024;8.534;2022-07-06T02:40:37;2.35;;;2.15;;
39088;SDS011;24837;48.024;8.534;2022-07-06T02:43:03;2.92;;;2.03;;
39088;SDS011;24837;48.024;8.534;2022-07-06T02:45:29;4.35;;;2.15;;
39088;SDS011;24837;48.024;8.534;2022-07-06T02:47:54;3.25;;;2.00;;
39088;SDS011;24837;48.024;8.534;2022-07-06T02:50:21;4.68;;;2.60;;
39088;SDS011;24837;48.024;8.534;2022-07-06T02:52:46;2.65;;;1.92;;
39088;SDS011;24837;48.024;8.534;2022-07-06T02:55:12;4.65;;;2.10;;
39088;SDS011;24837;48.024;8.534;2022-07-06T02:57:37;2.17;;;1.98;;
39088;SDS011;24837;48.024;8.534;2022-07-06T03:00:03;2.42;;;2.20;;
39088;SDS011;24837;48.024;8.534;2022-07-06T03:02:30;3.78;;;2.20;;
39088;SDS011;24837;48.024;8.534;2022-07-06T03:04:56;2.10;;;1.90;;
39088;SDS011;24837;48.024;8.534;2022-07-06T03:07:22;3.35;;;1.98;;
39088;SDS011;24837;48.024;8.534;2022-07-06T03:09:47;2.28;;;1.95;;
39088;SDS011;24837;48.024;8.534;2022-07-06T03:12:13;5.43;;;2.40;;
39088;SDS011;24837;48.024;8.534;2022-07-06T03:14:39;2.45;;;2.00;;
39088;SDS011;24837;48.024;8.534;2022-07-06T03:17:04;3.63;;;2.25;;
39088;SDS011;24837;48.024;8.534;2022-07-06T03:19:30;6.55;;;2.08;;
39088;SDS011;24837;48.024;8.534;2022-07-06T03:21:56;6.30;;;2.10;;
39088;SDS011;24837;48.024;8.534;2022-07-06T03:24:22;2.38;;;1.90;;
39088;SDS011;24837;48.024;8.534;2022-07-06T03:26:47;2.75;;;2.33;;
39088;SDS011;24837;48.024;8.534;2022-07-06T03:29:13;2.58;;;2.00;;
39088;SDS011;24837;48.024;8.534;2022-07-06T03:31:38;2.63;;;2.00;;
39088;SDS011;24837;48.024;8.534;2022-07-06T03:34:04;3.40;;;2.20;;
39088;SDS011;24837;48.024;8.534;2022-07-06T03:36:29;2.60;;;2.35;;
39088;SDS011;24837;48.024;8.534;2022-07-06T03:38:55;4.50;;;2.30;;
39088;SDS011;24837;48.024;8.534;2022-07-06T03:41:21;3.33;;;2.20;;
39088;SDS011;24837;48.024;8.534;2022-07-06T03:43:46;2.55;;;2.30;;
39088;SDS011;24837;48.024;8.534;2022-07-06T03:46:12;2.40;;;2.08;;
39088;SDS011;24837;48.024;8.534;2022-07-06T03:48:37;2.58;;;2.38;;
39088;SDS011;24837;48.024;8.534;2022-07-06T03:51:03;2.35;;;2.15;;
39088;SDS011;24837;48.024;8.534;2022-07-06T03:53:28;2.50;;;2.20;;
39088;SDS011;24837;48.024;8.534;2022-07-06T03:55:54;2.50;;;2.30;;
39088;SDS011;24837;48.024;8.534;2022-07-06T03:58:38;2.40;;;2.15;;
39088;SDS011;24837;48.024;8.534;2022-07-06T04:01:03;3.03;;;2.25;;
39088;SDS011;24837;48.024;8.534;2022-07-06T04:03:29;3.65;;;2.67;;
39088;SDS011;24837;48.024;8.534;2022-07-06T04:05:55;3.25;;;2.40;;
39088;SDS011;24837;48.024;8.534;2022-07-06T04:08:21;4.72;;;2.63;;
39088;SDS011;24837;48.024;8.534;2022-07-06T04:10:46;2.47;;;2.28;;
39088;SDS011;24837;48.024;8.534;2022-07-06T04:13:12;3.13;;;2.30;;
39088;SDS011;24837;48.024;8.534;2022-07-06T04:15:37;2.90;;;2.70;;
39088;SDS011;24837;48.024;8.534;2022-07-06T04:18:04;3.10;;;2.50;;
39088;SDS011;24837;48.024;8.534;2022-07-06T04:20:29;2.30;;;2.10;;
39088;SDS011;24837;48.024;8.534;2022-07-06T04:22:55;2.45;;;2.20;;
39088;SDS011;24837;48.024;8.534;2022-07-06T04:25:21;4.30;;;2.72;;
39088;SDS011;24837;48.024;8.534;2022-07-06T04:27:46;3.05;;;2.30;;
39088;SDS011;24837;48.024;8.534;2022-07-06T04:30:12;2.63;;;2.25;;
39088;SDS011;24837;48.024;8.534;2022-07-06T04:32:38;3.08;;;2.80;;
39088;SDS011;24837;48.024;8.534;2022-07-06T04:35:04;3.60;;;2.60;;
39088;SDS011;24837;48.024;8.534;2022-07-06T04:37:30;2.92;;;2.20;;
39088;SDS011;24837;48.024;8.534;2022-07-06T04:39:56;4.35;;;2.33;;
39088;SDS011;24837;48.024;8.534;2022-07-06T04:42:22;3.13;;;2.83;;
39088;SDS011;24837;48.024;8.534;2022-07-06T04:44:48;2.60;;;2.08;;
39088;SDS011;24837;48.024;8.534;2022-07-06T04:47:14;4.32;;;2.78;;
39088;SDS011;24837;48.024;8.534;2022-07-06T04:49:39;3.30;;;2.40;;
39088;SDS011;24837;48.024;8.534;2022-07-06T04:52:05;2.78;;;2.38;;
39088;SDS011;24837;48.024;8.534;2022-07-06T04:54:32;6.68;;;3.22;;
39088;SDS011;24837;48.024;8.534;2022-07-06T04:56:57;5.93;;;3.35;;
39088;SDS011;24837;48.024;8.534;2022-07-06T04:59:23;4.80;;;2.67;;
39088;SDS011;24837;48.024;8.534;2022-07-06T05:01:49;6.95;;;3.42;;
39088;SDS011;24837;48.024;8.534;2022-07-06T05:04:15;6.28;;;3.15;;
39088;SDS011;24837;48.024;8.534;2022-07-06T05:06:44;7.45;;;3.30;;
39088;SDS011;24837;48.024;8.534;2022-07-06T05:09:10;5.15;;;3.20;;
39088;SDS011;24837;48.024;8.534;2022-07-06T05:11:36;4.55;;;3.35;;
39088;SDS011;24837;48.024;8.534;2022-07-06T05:14:02;6.82;;;3.20;;
39088;SDS011;24837;48.024;8.534;2022-07-06T05:16:28;3.97;;;2.85;;
39088;SDS011;24837;48.024;8.534;2022-07-06T05:18:54;4.68;;;3.17;;
39088;SDS011;24837;48.024;8.534;2022-07-06T05:21:19;3.15;;;2.67;;
39088;SDS011;24837;48.024;8.534;2022-07-06T05:23:45;5.20;;;3.05;;
39088;SDS011;24837;48.024;8.534;2022-07-06T05:26:11;4.80;;;2.60;;
39088;SDS011;24837;48.024;8.534;2022-07-06T05:28:36;5.95;;;2.90;;
39088;SDS011;24837;48.024;8.534;2022-07-06T05:31:02;4.28;;;3.10;;
39088;SDS011;24837;48.024;8.534;2022-07-06T05:33:27;5.07;;;2.63;;
39088;SDS011;24837;48.024;8.534;2022-07-06T05:35:53;5.97;;;2.53;;
39088;SDS011;24837;48.024;8.534;2022-07-06T05:38:19;3.65;;;2.58;;
39088;SDS011;24837;48.024;8.534;2022-07-06T05:40:45;3.90;;;2.47;;
39088;SDS011;24837;48.024;8.534;2022-07-06T05:43:10;5.18;;;2.50;;
39088;SDS011;24837;48.024;8.534;2022-07-06T05:45:36;24.42;;;3.80;;
39088;SDS011;24837;48.024;8.534;2022-07-06T05:48:02;5.53;;;2.42;;
39088;SDS011;24837;48.024;8.534;2022-07-06T05:50:47;4.85;;;2.90;;
39088;SDS011;24837;48.024;8.534;2022-07-06T05:53:13;6.05;;;2.42;;
39088;SDS011;24837;48.024;8.534;2022-07-06T05:55:39;3.78;;;2.08;;
39088;SDS011;24837;48.024;8.534;2022-07-06T05:58:04;3.40;;;1.92;;
39088;SDS011;24837;48.024;8.534;2022-07-06T06:00:30;4.35;;;2.10;;
39088;SDS011;24837;48.024;8.534;2022-07-06T06:02:56;13.05;;;3.20;;
39088;SDS011;24837;48.024;8.534;2022-07-06T06:05:23;2.20;;;2.00;;
39088;SDS011;24837;48.024;8.534;2022-07-06T06:07:49;3.25;;;2.00;;
39088;SDS011;24837;48.024;8.534;2022-07-06T06:10:16;4.07;;;2.25;;
39088;SDS011;24837;48.024;8.534;2022-07-06T06:12:43;3.42;;;1.90;;
39088;SDS011;24837;48.024;8.534;2022-07-06T06:15:09;3.45;;;2.30;;
39088;SDS011;24837;48.024;8.534;2022-07-06T06:17:36;3.17;;;2.10;;
39088;SDS011;24837;48.024;8.534;2022-07-06T06:20:02;4.03;;;1.88;;
39088;SDS011;24837;48.024;8.534;2022-07-06T06:22:28;2.53;;;1.92;;
39088;SDS011;24837;48.024;8.534;2022-07-06T06:24:54;4.60;;;2.00;;
39088;SDS011;24837;48.024;8.534;2022-07-06T06:27:20;4.43;;;2.20;;
39088;SDS011;24837;48.024;8.534;2022-07-06T06:29:45;5.93;;;2.20;;
39088;SDS011;24837;48.024;8.534;2022-07-06T06:32:11;2.88;;;2.15;;
39088;SDS011;24837;48.024;8.534;2022-07-06T06:34:37;4.40;;;2.05;;
39088;SDS011;24837;48.024;8.534;2022-07-06T06:37:06;4.10;;;2.00;;
39088;SDS011;24837;48.024;8.534;2022-07-06T06:39:31;4.90;;;2.03;;
39088;SDS011;24837;48.024;8.534;2022-07-06T06:41:57;2.97;;;1.90;;
39088;SDS011;24837;48.024;8.534;2022-07-06T06:44:23;3.80;;;1.95;;
39088;SDS011;24837;48.024;8.534;2022-07-06T06:46:49;2.85;;;2.00;;
39088;SDS011;24837;48.024;8.534;2022-07-06T06:49:16;2.20;;;1.80;;
39088;SDS011;24837;48.024;8.534;2022-07-06T06:51:43;3.95;;;1.90;;
39088;SDS011;24837;48.024;8.534;2022-07-06T06:54:08;6.43;;;2.55;;
39088;SDS011;24837;48.024;8.534;2022-07-06T06:56:34;2.85;;;1.83;;
39088;SDS011;24837;48.024;8.534;2022-07-06T06:59:00;10.43;;;2.42;;
39088;SDS011;24837;48.024;8.534;2022-07-06T07:01:26;5.13;;;2.20;;
39088;SDS011;24837;48.024;8.534;2022-07-06T07:03:52;3.25;;;2.00;;
39088;SDS011;24837;48.024;8.534;2022-07-06T07:06:20;2.05;;;1.85;;
39088;SDS011;24837;48.024;8.534;2022-07-06T07:08:46;5.45;;;1.80;;
39088;SDS011;24837;48.024;8.534;2022-07-06T07:11:11;4.85;;;2.03;;
39088;SDS011;24837;48.024;8.534;2022-07-06T07:13:37;4.60;;;1.92;;
39088;SDS011;24837;48.024;8.534;2022-07-06T07:16:03;5.05;;;2.30;;
39088;SDS011;24837;48.024;8.534;2022-07-06T07:18:28;4.88;;;1.80;;
39088;SDS011;24837;48.024;8.534;2022-07-06T07:20:54;2.38;;;1.73;;
39088;SDS011;24837;48.024;8.534;2022-07-06T07:23:19;3.15;;;2.03;;
39088;SDS011;24837;48.024;8.534;2022-07-06T07:25:45;2.08;;;1.52;;
39088;SDS011;24837;48.024;8.534;2022-07-06T07:28:10;4.07;;;2.03;;
39088;SDS011;24837;48.024;8.534;2022-07-06T07:30:36;4.50;;;1.90;;
39088;SDS011;24837;48.024;8.534;2022-07-06T07:33:02;3.58;;;1.88;;
39088;SDS011;24837;48.024;8.534;2022-07-06T07:35:28;3.55;;;1.70;;
39088;SDS011;24837;48.024;8.534;2022-07-06T07:37:53;3.03;;;1.75;;
39088;SDS011;24837;48.024;8.534;2022-07-06T07:40:19;3.70;;;2.20;;
39088;SDS011;24837;48.024;8.534;2022-07-06T07:42:45;8.15;;;1.98;;
39088;SDS011;24837;48.024;8.534;2022-07-06T07:45:11;3.58;;;1.98;;
39088;SDS011;24837;48.024;8.534;2022-07-06T07:47:37;4.15;;;1.85;;
39088;SDS011;24837;48.024;8.534;2022-07-06T07:50:04;2.42;;;1.95;;
39088;SDS011;24837;48.024;8.534;2022-07-06T07:52:30;3.60;;;2.10;;
39088;SDS011;24837;48.024;8.534;2022-07-06T07:54:56;4.40;;;1.75;;
39088;SDS011;24837;48.024;8.534;2022-07-06T07:57:22;4.47;;;1.80;;
39088;SDS011;24837;48.024;8.534;2022-07-06T07:59:47;2.05;;;1.70;;
39088;SDS011;24837;48.024;8.534;2022-07-06T08:02:13;3.55;;;1.52;;
39088;SDS011;24837;48.024;8.534;2022-07-06T08:04:38;2.53;;;1.60;;
39088;SDS011;24837;48.024;8.534;2022-07-06T08:07:04;5.70;;;2.15;;
39088;SDS011;24837;48.024;8.534;2022-07-06T08:09:29;3.38;;;1.77;;
39088;SDS011;24837;48.024;8.534;2022-07-06T08:11:55;4.00;;;1.83;;
39088;SDS011;24837;48.024;8.534;2022-07-06T08:14:21;2.03;;;1.60;;
39088;SDS011;24837;48.024;8.534;2022-07-06T08:16:47;3.40;;;1.73;;
39088;SDS011;24837;48.024;8.534;2022-07-06T08:19:13;3.03;;;1.70;;
39088;SDS011;24837;48.024;8.534;2022-07-06T08:21:40;5.43;;;2.00;;
39088;SDS011;24837;48.024;8.534;2022-07-06T08:24:06;1.85;;;1.52;;
39088;SDS011;24837;48.024;8.534;2022-07-06T08:26:31;2.80;;;1.60;;
39088;SDS011;24837;48.024;8.534;2022-07-06T08:28:58;4.20;;;1.70;;
39088;SDS011;24837;48.024;8.534;2022-07-06T08:31:24;2.70;;;1.35;;
39088;SDS011;24837;48.024;8.534;2022-07-06T08:33:52;3.22;;;1.73;;
39088;SDS011;24837;48.024;8.534;2022-07-06T08:36:18;2.75;;;1.48;;
39088;SDS011;24837;48.024;8.534;2022-07-06T08:38:44;1.45;;;1.35;;
39088;SDS011;24837;48.024;8.534;2022-07-06T08:41:10;3.00;;;1.63;;
39088;SDS011;24837;48.024;8.534;2022-07-06T08:43:38;2.67;;;1.70;;
39088;SDS011;24837;48.024;8.534;2022-07-06T08:46:04;4.45;;;1.80;;
39088;SDS011;24837;48.024;8.534;2022-07-06T08:48:31;3.53;;;1.45;;
39088;SDS011;24837;48.024;8.534;2022-07-06T08:50:57;2.53;;;1.50;;
39088;SDS011;24837;48.024;8.534;2022-07-06T08:53:24;3.17;;;1.60;;
39088;SDS011;24837;48.024;8.534;2022-07-06T08:55:50;3.90;;;1.42;;
39088;SDS011;24837;48.024;8.534;2022-07-06T08:58:16;3.00;;;1.60;;
39088;SDS011;24837;48.024;8.534;2022-07-06T09:00:42;2.13;;;1.48;;
39088;SDS011;24837;48.024;8.534;2022-07-06T09:03:10;2.10;;;1.50;;
39088;SDS011;24837;48.024;8.534;2022-07-06T09:05:36;1.85;;;1.40;;
39088;SDS011;24837;48.024;8.534;2022-07-06T09:08:02;3.42;;;1.45;;
39088;SDS011;24837;48.024;8.534;2022-07-06T09:10:28;2.63;;;1.60;;
39088;SDS011;24837;48.024;8.534;2022-07-06T09:13:01;3.67;;;1.80;;
39088;SDS011;24837;48.024;8.534;2022-07-06T09:15:31;4.22;;;1.63;;
39088;SDS011;24837;48.024;8.534;2022-07-06T09:17:58;2.80;;;1.73;;
39088;SDS011;24837;48.024;8.534;2022-07-06T09:20:24;1.48;;;1.27;;
39088;SDS011;24837;48.024;8.534;2022-07-06T09:22:50;2.45;;;1.50;;
39088;SDS011;24837;48.024;8.534;2022-07-06T09:25:16;6.05;;;1.77;;
39088;SDS011;24837;48.024;8.534;2022-07-06T09:27:43;2.42;;;1.30;;
39088;SDS011;24837;48.024;8.534;2022-07-06T09:30:12;1.77;;;1.33;;
39088;SDS011;24837;48.024;8.534;2022-07-06T09:32:45;3.05;;;1.67;;
39088;SDS011;24837;48.024;8.534;2022-07-06T09:38:08;3.05;;;1.40;;
39088;SDS011;24837;48.024;8.534;2022-07-06T09:40:37;4.65;;;1.40;;
39088;SDS011;24837;48.024;8.534;2022-07-06T09:43:07;2.92;;;1.20;;
39088;SDS011;24837;48.024;8.534;2022-07-06T09:45:34;3.22;;;1.40;;
39088;SDS011;24837;48.024;8.534;2022-07-06T09:48:10;3.30;;;1.50;;
39088;SDS011;24837;48.024;8.534;2022-07-06T09:50:43;1.85;;;1.48;;
39088;SDS011;24837;48.024;8.534;2022-07-06T09:53:09;3.70;;;1.25;;
39088;SDS011;24837;48.024;8.534;2022-07-06T09:55:35;2.38;;;1.25;;
39088;SDS011;24837;48.024;8.534;2022-07-06T09:58:02;1.90;;;1.15;;
39088;SDS011;24837;48.024;8.534;2022-07-06T10:00:28;3.08;;;1.42;;
39088;SDS011;24837;48.024;8.534;2022-07-06T10:02:54;2.15;;;1.33;;
39088;SDS011;24837;48.024;8.534;2022-07-06T10:05:21;4.03;;;1.40;;
39088;SDS011;24837;48.024;8.534;2022-07-06T10:07:54;2.83;;;1.58;;
39088;SDS011;24837;48.024;8.534;2022-07-06T10:10:23;2.47;;;1.60;;
39088;SDS011;24837;48.024;8.534;2022-07-06T10:12:51;4.47;;;1.30;;
39088;SDS011;24837;48.024;8.534;2022-07-06T10:15:19;2.03;;;1.38;;
39088;SDS011;24837;48.024;8.534;2022-07-06T10:17:48;3.47;;;1.83;;
39088;SDS011;24837;48.024;8.534;2022-07-06T10:20:15;2.75;;;1.40;;
39088;SDS011;24837;48.024;8.534;2022-07-06T10:22:41;3.95;;;1.52;;
39088;SDS011;24837;48.024;8.534;2022-07-06T10:25:07;5.00;;;1.60;;
39088;SDS011;24837;48.024;8.534;2022-07-06T10:27:32;3.42;;;1.30;;
39088;SDS011;24837;48.024;8.534;2022-07-06T10:30:00;3.33;;;1.45;;
39088;SDS011;24837;48.024;8.534;2022-07-06T10:32:26;1.40;;;1.08;;
39088;SDS011;24837;48.024;8.534;2022-07-06T10:34:53;1.92;;;1.40;;
39088;SDS011;24837;48.024;8.534;2022-07-06T10:37:22;3.97;;;1.50;;
39088;SDS011;24837;48.024;8.534;2022-07-06T10:39:49;1.80;;;1.20;;
39088;SDS011;24837;48.024;8.534;2022-07-06T10:42:47;4.35;;;1.15;;
39088;SDS011;24837;48.024;8.534;2022-07-06T10:45:16;3.83;;;1.25;;
39088;SDS011;24837;48.024;8.534;2022-07-06T10:48:15;2.60;;;1.40;;
39088;SDS011;24837;48.024;8.534;2022-07-06T10:50:35;2.65;;;1.25;;
39088;SDS011;24837;48.024;8.534;2022-07-06T10:53:01;1.77;;;1.15;;
39088;SDS011;24837;48.024;8.534;2022-07-06T10:55:28;4.65;;;1.20;;
39088;SDS011;24837;48.024;8.534;2022-07-06T10:57:55;2.53;;;1.15;;
39088;SDS011;24837;48.024;8.534;2022-07-06T11:00:21;2.53;;;1.02;;
39088;SDS011;24837;48.024;8.534;2022-07-06T11:02:47;1.27;;;1.10;;
39088;SDS011;24837;48.024;8.534;2022-07-06T11:05:39;2.85;;;1.20;;
39088;SDS011;24837;48.024;8.534;2022-07-06T11:08:01;4.60;;;1.20;;
39088;SDS011;24837;48.024;8.534;2022-07-06T11:10:27;1.55;;;0.93;;
39088;SDS011;24837;48.024;8.534;2022-07-06T11:12:59;2.38;;;1.40;;
39088;SDS011;24837;48.024;8.534;2022-07-06T11:18:11;1.30;;;1.10;;
39088;SDS011;24837;48.024;8.534;2022-07-06T11:20:40;1.45;;;1.20;;
39088;SDS011;24837;48.024;8.534;2022-07-06T11:23:06;2.72;;;1.23;;
39088;SDS011;24837;48.024;8.534;2022-07-06T11:25:32;2.00;;;1.13;;
39088;SDS011;24837;48.024;8.534;2022-07-06T11:27:58;2.90;;;1.20;;
39088;SDS011;24837;48.024;8.534;2022-07-06T11:30:24;3.70;;;1.30;;
39088;SDS011;24837;48.024;8.534;2022-07-06T11:32:50;1.65;;;0.98;;
39088;SDS011;24837;48.024;8.534;2022-07-06T11:35:22;4.35;;;1.48;;
39088;SDS011;24837;48.024;8.534;2022-07-06T11:37:47;2.03;;;1.20;;
39088;SDS011;24837;48.024;8.534;2022-07-06T11:40:13;1.83;;;1.10;;
39088;SDS011;24837;48.024;8.534;2022-07-06T11:42:52;2.70;;;1.17;;
39088;SDS011;24837;48.024;8.534;2022-07-06T11:45:25;2.90;;;1.00;;
39088;SDS011;24837;48.024;8.534;2022-07-06T11:48:07;1.92;;;0.93;;
39088;SDS011;24837;48.024;8.534;2022-07-06T11:50:35;2.78;;;0.90;;
39088;SDS011;24837;48.024;8.534;2022-07-06T11:53:00;2.60;;;1.08;;
39088;SDS011;24837;48.024;8.534;2022-07-06T11:55:27;2.92;;;1.02;;
39088;SDS011;24837;48.024;8.534;2022-07-06T11:57:54;2.67;;;1.20;;
39088;SDS011;24837;48.024;8.534;2022-07-06T12:00:22;1.90;;;0.90;;
39088;SDS011;24837;48.024;8.534;2022-07-06T12:03:00;1.38;;;1.05;;
39088;SDS011;24837;48.024;8.534;2022-07-06T12:05:31;2.65;;;1.13;;
39088;SDS011;24837;48.024;8.534;2022-07-06T12:10:34;6.45;;;1.10;;
39088;SDS011;24837;48.024;8.534;2022-07-06T12:13:04;2.20;;;1.23;;
39088;SDS011;24837;48.024;8.534;2022-07-06T12:15:29;2.63;;;1.30;;
39088;SDS011;24837;48.024;8.534;2022-07-06T12:17:55;1.63;;;1.00;;
39088;SDS011;24837;48.024;8.534;2022-07-06T12:20:20;2.55;;;1.13;;
39088;SDS011;24837;48.024;8.534;2022-07-06T12:22:46;2.30;;;0.90;;
39088;SDS011;24837;48.024;8.534;2022-07-06T12:25:11;2.05;;;0.95;;
39088;SDS011;24837;48.024;8.534;2022-07-06T12:27:53;2.67;;;1.02;;
39088;SDS011;24837;48.024;8.534;2022-07-06T12:30:19;3.00;;;1.00;;
39088;SDS011;24837;48.024;8.534;2022-07-06T12:32:44;1.38;;;0.90;;
39088;SDS011;24837;48.024;8.534;2022-07-06T12:35:10;1.65;;;0.98;;
39088;SDS011;24837;48.024;8.534;2022-07-06T12:37:36;1.33;;;1.02;;
39088;SDS011;24837;48.024;8.534;2022-07-06T12:40:02;2.25;;;1.15;;
39088;SDS011;24837;48.024;8.534;2022-07-06T12:42:45;2.83;;;1.00;;
39088;SDS011;24837;48.024;8.534;2022-07-06T12:45:11;2.97;;;1.20;;
39088;SDS011;24837;48.024;8.534;2022-07-06T12:47:37;2.33;;;1.60;;
39088;SDS011;24837;48.024;8.534;2022-07-06T12:50:08;3.17;;;1.10;;
39088;SDS011;24837;48.024;8.534;2022-07-06T12:52:35;2.53;;;1.10;;
39088;SDS011;24837;48.024;8.534;2022-07-06T12:55:02;3.90;;;1.30;;
39088;SDS011;24837;48.024;8.534;2022-07-06T12:57:41;3.78;;;1.20;;
39088;SDS011;24837;48.024;8.534;2022-07-06T13:00:07;3.47;;;0.80;;
39088;SDS011;24837;48.024;8.534;2022-07-06T13:02:34;4.10;;;1.20;;
39088;SDS011;24837;48.024;8.534;2022-07-06T13:05:05;2.22;;;1.10;;
39088;SDS011;24837;48.024;8.534;2022-07-06T13:07:34;1.15;;;1.05;;
39088;SDS011;24837;48.024;8.534;2022-07-06T13:10:02;1.52;;;1.15;;
39088;SDS011;24837;48.024;8.534;2022-07-06T13:12:28;2.97;;;1.10;;
39088;SDS011;24837;48.024;8.534;2022-07-06T13:14:54;2.20;;;1.35;;
39088;SDS011;24837;48.024;8.534;2022-07-06T13:17:20;2.22;;;1.10;;
39088;SDS011;24837;48.024;8.534;2022-07-06T13:19:46;2.83;;;1.25;;
39088;SDS011;24837;48.024;8.534;2022-07-06T13:22:12;2.40;;;1.42;;
39088;SDS011;24837;48.024;8.534;2022-07-06T13:24:38;1.35;;;0.90;;
39088;SDS011;24837;48.024;8.534;2022-07-06T13:27:04;3.88;;;1.00;;
39088;SDS011;24837;48.024;8.534;2022-07-06T13:29:30;3.88;;;1.02;;
39088;SDS011;24837;48.024;8.534;2022-07-06T13:31:56;5.32;;;1.20;;
39088;SDS011;24837;48.024;8.534;2022-07-06T13:34:22;1.98;;;1.17;;
39088;SDS011;24837;48.024;8.534;2022-07-06T13:36:49;3.72;;;1.17;;
39088;SDS011;24837;48.024;8.534;2022-07-06T13:39:15;3.67;;;0.98;;
39088;SDS011;24837;48.024;8.534;2022-07-06T13:41:41;2.13;;;1.00;;
39088;SDS011;24837;48.024;8.534;2022-07-06T13:44:07;1.77;;;1.10;;
39088;SDS011;24837;48.024;8.534;2022-07-06T13:46:34;1.70;;;1.05;;
39088;SDS011;24837;48.024;8.534;2022-07-06T13:49:01;3.08;;;1.20;;
39088;SDS011;24837;48.024;8.534;2022-07-06T13:51:29;3.85;;;1.35;;
39088;SDS011;24837;48.024;8.534;2022-07-06T13:53:57;2.53;;;0.80;;
39088;SDS011;24837;48.024;8.534;2022-07-06T13:56:26;4.07;;;1.00;;
39088;SDS011;24837;48.024;8.534;2022-07-06T13:58:52;1.15;;;0.85;;
39088;SDS011;24837;48.024;8.534;2022-07-06T14:01:18;2.05;;;1.30;;
39088;SDS011;24837;48.024;8.534;2022-07-06T14:03:44;2.05;;;1.10;;
39088;SDS011;24837;48.024;8.534;2022-07-06T14:06:10;2.95;;;0.95;;
39088;SDS011;24837;48.024;8.534;2022-07-06T14:08:36;1.48;;;0.90;;
39088;SDS011;24837;48.024;8.534;2022-07-06T14:11:03;1.48;;;0.90;;
39088;SDS011;24837;48.024;8.534;2022-07-06T14:13:29;2.45;;;0.90;;
39088;SDS011;24837;48.024;8.534;2022-07-06T14:15:55;1.83;;;1.05;;
39088;SDS011;24837;48.024;8.534;2022-07-06T14:18:21;1.42;;;1.15;;
39088;SDS011;24837;48.024;8.534;2022-07-06T14:20:48;4.78;;;1.08;;
39088;SDS011;24837;48.024;8.534;2022-07-06T14:23:14;3.08;;;1.10;;
39088;SDS011;24837;48.024;8.534;2022-07-06T14:25:40;2.35;;;1.10;;
39088;SDS011;24837;48.024;8.534;2022-07-06T14:28:07;2.20;;;0.98;;
39088;SDS011;24837;48.024;8.534;2022-07-06T14:30:33;2.22;;;0.93;;
39088;SDS011;24837;48.024;8.534;2022-07-06T14:33:04;1.88;;;0.80;;
39088;SDS011;24837;48.024;8.534;2022-07-06T14:35:36;3.05;;;1.30;;
39088;SDS011;24837;48.024;8.534;2022-07-06T14:38:03;1.77;;;1.02;;
39088;SDS011;24837;48.024;8.534;2022-07-06T14:40:30;1.75;;;0.93;;
39088;SDS011;24837;48.024;8.534;2022-07-06T14:42:57;3.25;;;1.10;;
39088;SDS011;24837;48.024;8.534;2022-07-06T14:45:23;3.08;;;1.15;;
39088;SDS011;24837;48.024;8.534;2022-07-06T14:47:49;2.20;;;1.05;;
39088;SDS011;24837;48.024;8.534;2022-07-06T14:50:14;4.10;;;1.33;;
39088;SDS011;24837;48.024;8.534;2022-07-06T14:52:40;3.95;;;1.17;;
39088;SDS011;24837;48.024;8.534;2022-07-06T14:55:06;2.47;;;1.00;;